sensor_id;sensor_type;location;lat;lon;timestamp;P1;durP1;ratioP1;P2;durP2;ratioP2
37455;SDS011;23316;50.718;7.328;2023-02-15T00:00:19;46.35;;;24.65;;
37455;SDS011;23316;50.718;7.328;2023-02-15T00:02:46;45.28;;;24.38;;
37455;SDS011;23316;50.718;7.328;2023-02-15T00:05:15;50.88;;;26.42;;
37455;SDS011;23316;50.718;7.328;2023-02-15T00:07:42;45.95;;;23.98;;
37455;SDS011;23316;50.718;7.328;2023-02-15T00:10:10;46.42;;;24.75;;
37455;SDS011;23316;50.718;7.328;2023-02-15T00:12:37;45.10;;;23.33;;
37455;SDS011;23316;50.718;7.328;2023-02-15T00:15:04;41.90;;;22.73;;
37455;SDS011;23316;50.718;7.328;2023-02-15T00:17:32;47.22;;;24.48;;
37455;SDS011;23316;50.718;7.328;2023-02-15T00:19:59;46.30;;;23.52;;
37455;SDS011;23316;50.718;7.328;2023-02-15T00:22:28;42.33;;;23.63;;
37455;SDS011;23316;50.718;7.328;2023-02-15T00:24:55;45.35;;;23.75;;
37455;SDS011;23316;50.718;7.328;2023-02-15T00:27:22;42.33;;;23.15;;
37455;SDS011;23316;50.718;7.328;2023-02-15T00:29:50;42.63;;;22.73;;
37455;SDS011;23316;50.718;7.328;2023-02-15T00:32:17;49.70;;;25.02;;
37455;SDS011;23316;50.718;7.328;2023-02-15T00:34:44;45.67;;;23.48;;
37455;SDS011;23316;50.718;7.328;2023-02-15T00:37:11;47.38;;;25.95;;
37455;SDS011;23316;50.718;7.328;2023-02-15T00:39:40;51.00;;;25.67;;
37455;SDS011;23316;50.718;7.328;2023-02-15T00:42:07;51.80;;;26.67;;
37455;SDS011;23316;50.718;7.328;2023-02-15T00:44:34;49.20;;;25.42;;
37455;SDS011;23316;50.718;7.328;2023-02-15T00:47:01;50.83;;;23.98;;
37455;SDS011;23316;50.718;7.328;2023-02-15T00:49:29;43.28;;;23.73;;
37455;SDS011;23316;50.718;7.328;2023-02-15T00:51:56;44.80;;;22.88;;
37455;SDS011;23316;50.718;7.328;2023-02-15T00:54:23;43.08;;;22.38;;
37455;SDS011;23316;50.718;7.328;2023-02-15T00:56:52;44.45;;;24.08;;
37455;SDS011;23316;50.718;7.328;2023-02-15T00:59:19;47.22;;;25.02;;
37455;SDS011;23316;50.718;7.328;2023-02-15T01:01:46;50.08;;;25.33;;
37455;SDS011;23316;50.718;7.328;2023-02-15T01:04:13;39.97;;;21.90;;
37455;SDS011;23316;50.718;7.328;2023-02-15T01:06:41;41.75;;;22.85;;
37455;SDS011;23316;50.718;7.328;2023-02-15T01:09:08;43.67;;;22.48;;
37455;SDS011;23316;50.718;7.328;2023-02-15T01:11:35;43.17;;;23.40;;
37455;SDS011;23316;50.718;7.328;2023-02-15T01:14:04;42.35;;;22.98;;
37455;SDS011;23316;50.718;7.328;2023-02-15T01:16:31;47.22;;;23.85;;
37455;SDS011;23316;50.718;7.328;2023-02-15T01:18:58;52.92;;;27.48;;
37455;SDS011;23316;50.718;7.328;2023-02-15T01:21:28;44.38;;;23.92;;
37455;SDS011;23316;50.718;7.328;2023-02-15T01:23:55;46.63;;;23.83;;
37455;SDS011;23316;50.718;7.328;2023-02-15T01:26:22;46.42;;;22.95;;
37455;SDS011;23316;50.718;7.328;2023-02-15T01:28:49;42.30;;;22.67;;
37455;SDS011;23316;50.718;7.328;2023-02-15T01:31:18;43.72;;;22.35;;
37455;SDS011;23316;50.718;7.328;2023-02-15T01:33:47;51.67;;;26.83;;
37455;SDS011;23316;50.718;7.328;2023-02-15T01:36:14;43.28;;;22.70;;
37455;SDS011;23316;50.718;7.328;2023-02-15T01:38:42;43.65;;;23.10;;
37455;SDS011;23316;50.718;7.328;2023-02-15T01:41:10;45.80;;;24.45;;
37455;SDS011;23316;50.718;7.328;2023-02-15T01:43:49;42.08;;;22.27;;
37455;SDS011;23316;50.718;7.328;2023-02-15T01:46:20;41.15;;;21.40;;
37455;SDS011;23316;50.718;7.328;2023-02-15T01:48:50;41.70;;;22.17;;
37455;SDS011;23316;50.718;7.328;2023-02-15T01:51:22;42.72;;;22.13;;
37455;SDS011;23316;50.718;7.328;2023-02-15T01:53:54;47.65;;;24.55;;
37455;SDS011;23316;50.718;7.328;2023-02-15T01:56:26;43.58;;;23.27;;
37455;SDS011;23316;50.718;7.328;2023-02-15T01:58:56;43.20;;;23.05;;
37455;SDS011;23316;50.718;7.328;2023-02-15T02:01:30;40.42;;;21.88;;
37455;SDS011;23316;50.718;7.328;2023-02-15T02:03:59;44.10;;;23.55;;
37455;SDS011;23316;50.718;7.328;2023-02-15T02:06:32;44.97;;;22.48;;
37455;SDS011;23316;50.718;7.328;2023-02-15T02:09:02;50.15;;;25.75;;
37455;SDS011;23316;50.718;7.328;2023-02-15T02:11:30;48.10;;;24.17;;
37455;SDS011;23316;50.718;7.328;2023-02-15T02:13:57;39.33;;;20.80;;
37455;SDS011;23316;50.718;7.328;2023-02-15T02:16:25;41.20;;;22.17;;
37455;SDS011;23316;50.718;7.328;2023-02-15T02:19:17;44.95;;;22.63;;
37455;SDS011;23316;50.718;7.328;2023-02-15T02:28:41;46.78;;;23.63;;
37455;SDS011;23316;50.718;7.328;2023-02-15T02:31:31;42.28;;;23.33;;
37455;SDS011;23316;50.718;7.328;2023-02-15T02:34:12;43.05;;;23.40;;
37455;SDS011;23316;50.718;7.328;2023-02-15T02:36:47;40.13;;;21.35;;
37455;SDS011;23316;50.718;7.328;2023-02-15T02:39:22;42.80;;;23.15;;
37455;SDS011;23316;50.718;7.328;2023-02-15T02:41:58;40.50;;;21.15;;
37455;SDS011;23316;50.718;7.328;2023-02-15T02:44:29;42.47;;;21.83;;
37455;SDS011;23316;50.718;7.328;2023-02-15T02:47:02;39.83;;;20.83;;
37455;SDS011;23316;50.718;7.328;2023-02-15T02:49:38;46.65;;;24.83;;
37455;SDS011;23316;50.718;7.328;2023-02-15T02:52:06;47.75;;;23.65;;
37455;SDS011;23316;50.718;7.328;2023-02-15T02:54:49;41.97;;;21.48;;
37455;SDS011;23316;50.718;7.328;2023-02-15T02:57:16;44.85;;;23.42;;
37455;SDS011;23316;50.718;7.328;2023-02-15T02:59:45;38.85;;;21.88;;
37455;SDS011;23316;50.718;7.328;2023-02-15T03:02:15;37.15;;;19.48;;
37455;SDS011;23316;50.718;7.328;2023-02-15T03:04:49;40.83;;;21.90;;
37455;SDS011;23316;50.718;7.328;2023-02-15T03:07:24;44.72;;;23.25;;
37455;SDS011;23316;50.718;7.328;2023-02-15T03:09:54;37.08;;;20.52;;
37455;SDS011;23316;50.718;7.328;2023-02-15T03:12:24;40.22;;;21.35;;
37455;SDS011;23316;50.718;7.328;2023-02-15T03:14:56;42.28;;;21.95;;
37455;SDS011;23316;50.718;7.328;2023-02-15T03:17:27;41.65;;;21.73;;
37455;SDS011;23316;50.718;7.328;2023-02-15T03:20:00;43.17;;;21.83;;
37455;SDS011;23316;50.718;7.328;2023-02-15T03:22:33;39.55;;;21.23;;
37455;SDS011;23316;50.718;7.328;2023-02-15T03:25:04;40.60;;;21.52;;
37455;SDS011;23316;50.718;7.328;2023-02-15T03:27:35;45.00;;;24.25;;
37455;SDS011;23316;50.718;7.328;2023-02-15T03:30:07;43.75;;;22.65;;
37455;SDS011;23316;50.718;7.328;2023-02-15T03:32:36;41.00;;;21.98;;
37455;SDS011;23316;50.718;7.328;2023-02-15T03:35:07;38.38;;;20.02;;
37455;SDS011;23316;50.718;7.328;2023-02-15T03:37:35;34.22;;;18.88;;
37455;SDS011;23316;50.718;7.328;2023-02-15T03:40:06;36.58;;;19.38;;
37455;SDS011;23316;50.718;7.328;2023-02-15T03:42:58;37.50;;;20.77;;
37455;SDS011;23316;50.718;7.328;2023-02-15T03:45:30;41.03;;;21.10;;
37455;SDS011;23316;50.718;7.328;2023-02-15T03:47:59;40.70;;;20.77;;
37455;SDS011;23316;50.718;7.328;2023-02-15T03:50:30;43.22;;;23.65;;
37455;SDS011;23316;50.718;7.328;2023-02-15T03:53:19;47.35;;;23.88;;
37455;SDS011;23316;50.718;7.328;2023-02-15T03:55:49;42.05;;;21.90;;
37455;SDS011;23316;50.718;7.328;2023-02-15T03:58:20;39.50;;;19.27;;
37455;SDS011;23316;50.718;7.328;2023-02-15T04:01:06;41.80;;;21.83;;
37455;SDS011;23316;50.718;7.328;2023-02-15T04:03:58;37.30;;;19.73;;
37455;SDS011;23316;50.718;7.328;2023-02-15T04:06:30;40.90;;;21.00;;
37455;SDS011;23316;50.718;7.328;2023-02-15T04:08:58;32.85;;;19.02;;
37455;SDS011;23316;50.718;7.328;2023-02-15T04:11:42;38.97;;;19.50;;
37455;SDS011;23316;50.718;7.328;2023-02-15T04:14:10;34.70;;;19.05;;
37455;SDS011;23316;50.718;7.328;2023-02-15T04:16:52;36.42;;;19.38;;
37455;SDS011;23316;50.718;7.328;2023-02-15T04:19:19;36.47;;;19.48;;
37455;SDS011;23316;50.718;7.328;2023-02-15T04:22:05;33.10;;;18.13;;
37455;SDS011;23316;50.718;7.328;2023-02-15T04:24:49;39.03;;;20.25;;
37455;SDS011;23316;50.718;7.328;2023-02-15T04:27:34;36.22;;;18.80;;
37455;SDS011;23316;50.718;7.328;2023-02-15T04:30:02;34.75;;;18.90;;
37455;SDS011;23316;50.718;7.328;2023-02-15T04:32:29;32.70;;;17.92;;
37455;SDS011;23316;50.718;7.328;2023-02-15T04:34:57;31.80;;;17.20;;
37455;SDS011;23316;50.718;7.328;2023-02-15T04:37:25;33.38;;;17.52;;
37455;SDS011;23316;50.718;7.328;2023-02-15T04:39:53;37.90;;;19.75;;
37455;SDS011;23316;50.718;7.328;2023-02-15T04:42:20;35.88;;;18.88;;
37455;SDS011;23316;50.718;7.328;2023-02-15T04:44:47;36.13;;;19.00;;
37455;SDS011;23316;50.718;7.328;2023-02-15T04:47:14;34.20;;;18.67;;
37455;SDS011;23316;50.718;7.328;2023-02-15T04:49:42;37.13;;;19.15;;
37455;SDS011;23316;50.718;7.328;2023-02-15T04:52:09;33.83;;;18.20;;
37455;SDS011;23316;50.718;7.328;2023-02-15T04:54:38;33.28;;;18.27;;
37455;SDS011;23316;50.718;7.328;2023-02-15T04:57:05;33.60;;;18.23;;
37455;SDS011;23316;50.718;7.328;2023-02-15T04:59:33;31.50;;;16.90;;
37455;SDS011;23316;50.718;7.328;2023-02-15T05:02:00;37.17;;;19.75;;
37455;SDS011;23316;50.718;7.328;2023-02-15T05:04:28;38.15;;;19.98;;
37455;SDS011;23316;50.718;7.328;2023-02-15T05:06:55;31.45;;;17.13;;
37455;SDS011;23316;50.718;7.328;2023-02-15T05:09:22;32.97;;;18.23;;
37455;SDS011;23316;50.718;7.328;2023-02-15T05:11:51;32.75;;;17.88;;
37455;SDS011;23316;50.718;7.328;2023-02-15T05:14:18;32.53;;;17.63;;
37455;SDS011;23316;50.718;7.328;2023-02-15T05:16:46;31.98;;;17.02;;
37455;SDS011;23316;50.718;7.328;2023-02-15T05:19:13;34.25;;;17.85;;
37455;SDS011;23316;50.718;7.328;2023-02-15T05:21:41;32.45;;;17.80;;
37455;SDS011;23316;50.718;7.328;2023-02-15T05:24:08;32.45;;;17.83;;
37455;SDS011;23316;50.718;7.328;2023-02-15T05:26:49;31.20;;;17.38;;
37455;SDS011;23316;50.718;7.328;2023-02-15T05:29:35;29.75;;;17.40;;
37455;SDS011;23316;50.718;7.328;2023-02-15T05:32:03;32.17;;;18.48;;
37455;SDS011;23316;50.718;7.328;2023-02-15T05:34:30;31.05;;;16.52;;
37455;SDS011;23316;50.718;7.328;2023-02-15T05:36:57;29.30;;;17.20;;
37455;SDS011;23316;50.718;7.328;2023-02-15T05:39:24;34.38;;;18.42;;
37455;SDS011;23316;50.718;7.328;2023-02-15T05:41:53;30.83;;;17.10;;
37455;SDS011;23316;50.718;7.328;2023-02-15T05:44:20;34.38;;;17.35;;
37455;SDS011;23316;50.718;7.328;2023-02-15T05:46:47;38.90;;;20.42;;
37455;SDS011;23316;50.718;7.328;2023-02-15T05:49:15;60.97;;;28.02;;
37455;SDS011;23316;50.718;7.328;2023-02-15T05:51:42;45.30;;;22.48;;
37455;SDS011;23316;50.718;7.328;2023-02-15T05:54:09;36.53;;;19.27;;
37455;SDS011;23316;50.718;7.328;2023-02-15T05:56:36;32.25;;;18.38;;
37455;SDS011;23316;50.718;7.328;2023-02-15T05:59:05;28.35;;;15.80;;
37455;SDS011;23316;50.718;7.328;2023-02-15T06:01:32;30.90;;;16.90;;
37455;SDS011;23316;50.718;7.328;2023-02-15T06:03:59;31.58;;;16.63;;
37455;SDS011;23316;50.718;7.328;2023-02-15T06:06:27;31.08;;;16.98;;
37455;SDS011;23316;50.718;7.328;2023-02-15T06:08:54;25.80;;;15.00;;
37455;SDS011;23316;50.718;7.328;2023-02-15T06:11:21;80.28;;;33.53;;
37455;SDS011;23316;50.718;7.328;2023-02-15T06:13:48;41.42;;;20.60;;
37455;SDS011;23316;50.718;7.328;2023-02-15T06:16:18;34.95;;;18.23;;
37455;SDS011;23316;50.718;7.328;2023-02-15T06:18:45;28.17;;;15.70;;
37455;SDS011;23316;50.718;7.328;2023-02-15T06:21:12;30.83;;;17.40;;
37455;SDS011;23316;50.718;7.328;2023-02-15T06:23:39;29.67;;;15.88;;
37455;SDS011;23316;50.718;7.328;2023-02-15T06:26:08;28.38;;;16.08;;
37455;SDS011;23316;50.718;7.328;2023-02-15T06:28:35;25.67;;;14.63;;
37455;SDS011;23316;50.718;7.328;2023-02-15T06:31:03;29.92;;;16.00;;
37455;SDS011;23316;50.718;7.328;2023-02-15T06:33:32;29.55;;;16.35;;
37455;SDS011;23316;50.718;7.328;2023-02-15T06:36:00;30.35;;;16.23;;
37455;SDS011;23316;50.718;7.328;2023-02-15T06:38:29;28.27;;;15.10;;
37455;SDS011;23316;50.718;7.328;2023-02-15T06:40:56;24.67;;;13.85;;
37455;SDS011;23316;50.718;7.328;2023-02-15T06:43:24;28.38;;;15.30;;
37455;SDS011;23316;50.718;7.328;2023-02-15T06:45:51;26.30;;;15.38;;
37455;SDS011;23316;50.718;7.328;2023-02-15T06:48:18;25.23;;;14.50;;
37455;SDS011;23316;50.718;7.328;2023-02-15T06:50:47;25.70;;;14.45;;
37455;SDS011;23316;50.718;7.328;2023-02-15T06:53:14;29.63;;;15.82;;
37455;SDS011;23316;50.718;7.328;2023-02-15T06:55:41;24.73;;;14.30;;
37455;SDS011;23316;50.718;7.328;2023-02-15T06:58:11;27.65;;;15.68;;
37455;SDS011;23316;50.718;7.328;2023-02-15T07:00:38;26.48;;;14.95;;
37455;SDS011;23316;50.718;7.328;2023-02-15T07:03:05;35.47;;;15.63;;
37455;SDS011;23316;50.718;7.328;2023-02-15T07:05:33;27.35;;;15.65;;
37455;SDS011;23316;50.718;7.328;2023-02-15T07:08:02;29.13;;;16.38;;
37455;SDS011;23316;50.718;7.328;2023-02-15T07:10:29;29.20;;;15.73;;
37455;SDS011;23316;50.718;7.328;2023-02-15T07:12:57;26.08;;;14.18;;
37455;SDS011;23316;50.718;7.328;2023-02-15T07:15:23;25.08;;;14.13;;
37455;SDS011;23316;50.718;7.328;2023-02-15T07:17:50;26.65;;;14.55;;
37455;SDS011;23316;50.718;7.328;2023-02-15T07:20:18;25.08;;;14.07;;
37455;SDS011;23316;50.718;7.328;2023-02-15T07:22:47;25.95;;;14.77;;
37455;SDS011;23316;50.718;7.328;2023-02-15T07:25:16;27.40;;;15.05;;
37455;SDS011;23316;50.718;7.328;2023-02-15T07:27:43;26.83;;;16.15;;
37455;SDS011;23316;50.718;7.328;2023-02-15T07:30:11;26.17;;;15.45;;
37455;SDS011;23316;50.718;7.328;2023-02-15T07:32:40;25.60;;;15.02;;
37455;SDS011;23316;50.718;7.328;2023-02-15T07:35:21;24.00;;;14.18;;
37455;SDS011;23316;50.718;7.328;2023-02-15T07:37:49;24.52;;;13.43;;
37455;SDS011;23316;50.718;7.328;2023-02-15T07:40:17;31.55;;;16.05;;
37455;SDS011;23316;50.718;7.328;2023-02-15T07:42:45;26.30;;;14.80;;
37455;SDS011;23316;50.718;7.328;2023-02-15T07:45:12;27.27;;;15.60;;
37455;SDS011;23316;50.718;7.328;2023-02-15T07:47:39;25.65;;;14.88;;
37455;SDS011;23316;50.718;7.328;2023-02-15T07:50:07;27.20;;;15.23;;
37455;SDS011;23316;50.718;7.328;2023-02-15T07:52:34;31.08;;;15.43;;
37455;SDS011;23316;50.718;7.328;2023-02-15T07:55:02;27.92;;;15.73;;
37455;SDS011;23316;50.718;7.328;2023-02-15T07:57:31;26.65;;;15.30;;
37455;SDS011;23316;50.718;7.328;2023-02-15T07:59:59;25.45;;;14.02;;
37455;SDS011;23316;50.718;7.328;2023-02-15T08:02:26;27.98;;;15.45;;
37455;SDS011;23316;50.718;7.328;2023-02-15T08:04:54;27.45;;;15.30;;
37455;SDS011;23316;50.718;7.328;2023-02-15T08:07:21;29.63;;;16.08;;
37455;SDS011;23316;50.718;7.328;2023-02-15T08:09:48;26.63;;;14.57;;
37455;SDS011;23316;50.718;7.328;2023-02-15T08:12:16;27.70;;;14.68;;
37455;SDS011;23316;50.718;7.328;2023-02-15T08:14:44;25.83;;;14.98;;
37455;SDS011;23316;50.718;7.328;2023-02-15T08:17:11;25.17;;;13.98;;
37455;SDS011;23316;50.718;7.328;2023-02-15T08:19:39;26.83;;;14.60;;
37455;SDS011;23316;50.718;7.328;2023-02-15T08:22:07;23.13;;;13.43;;
37455;SDS011;23316;50.718;7.328;2023-02-15T08:24:38;24.88;;;14.02;;
37455;SDS011;23316;50.718;7.328;2023-02-15T08:27:07;25.27;;;13.75;;
37455;SDS011;23316;50.718;7.328;2023-02-15T08:29:36;26.60;;;15.02;;
37455;SDS011;23316;50.718;7.328;2023-02-15T08:32:06;25.58;;;14.30;;
37455;SDS011;23316;50.718;7.328;2023-02-15T08:34:36;28.52;;;15.27;;
37455;SDS011;23316;50.718;7.328;2023-02-15T08:37:07;28.70;;;14.98;;
37455;SDS011;23316;50.718;7.328;2023-02-15T08:39:35;24.70;;;13.98;;
37455;SDS011;23316;50.718;7.328;2023-02-15T08:42:02;25.73;;;14.70;;
37455;SDS011;23316;50.718;7.328;2023-02-15T08:44:29;26.25;;;14.32;;
37455;SDS011;23316;50.718;7.328;2023-02-15T08:46:57;26.45;;;14.77;;
37455;SDS011;23316;50.718;7.328;2023-02-15T08:49:30;26.10;;;13.95;;
37455;SDS011;23316;50.718;7.328;2023-02-15T08:51:59;25.15;;;13.88;;
37455;SDS011;23316;50.718;7.328;2023-02-15T08:54:26;25.45;;;13.88;;
37455;SDS011;23316;50.718;7.328;2023-02-15T08:56:53;25.52;;;13.75;;
37455;SDS011;23316;50.718;7.328;2023-02-15T08:59:21;23.90;;;13.57;;
37455;SDS011;23316;50.718;7.328;2023-02-15T09:01:50;28.08;;;15.10;;
37455;SDS011;23316;50.718;7.328;2023-02-15T09:04:18;25.95;;;13.30;;
37455;SDS011;23316;50.718;7.328;2023-02-15T09:06:48;22.38;;;12.48;;
37455;SDS011;23316;50.718;7.328;2023-02-15T09:09:17;27.98;;;13.73;;
37455;SDS011;23316;50.718;7.328;2023-02-15T09:11:46;24.58;;;14.57;;
37455;SDS011;23316;50.718;7.328;2023-02-15T09:14:15;25.67;;;14.50;;
37455;SDS011;23316;50.718;7.328;2023-02-15T09:16:45;25.77;;;14.82;;
37455;SDS011;23316;50.718;7.328;2023-02-15T09:19:16;32.35;;;15.38;;
37455;SDS011;23316;50.718;7.328;2023-02-15T09:21:45;25.15;;;14.52;;
37455;SDS011;23316;50.718;7.328;2023-02-15T09:24:14;25.92;;;14.55;;
37455;SDS011;23316;50.718;7.328;2023-02-15T09:26:43;25.23;;;14.60;;
37455;SDS011;23316;50.718;7.328;2023-02-15T09:29:12;26.10;;;14.90;;
37455;SDS011;23316;50.718;7.328;2023-02-15T09:31:41;25.63;;;14.38;;
37455;SDS011;23316;50.718;7.328;2023-02-15T09:34:09;25.98;;;14.38;;
37455;SDS011;23316;50.718;7.328;2023-02-15T09:36:38;26.05;;;15.25;;
37455;SDS011;23316;50.718;7.328;2023-02-15T09:39:07;27.88;;;14.98;;
37455;SDS011;23316;50.718;7.328;2023-02-15T09:41:43;24.42;;;13.23;;
37455;SDS011;23316;50.718;7.328;2023-02-15T09:44:41;24.08;;;14.10;;
37455;SDS011;23316;50.718;7.328;2023-02-15T09:50:44;25.00;;;14.70;;
37455;SDS011;23316;50.718;7.328;2023-02-15T09:53:24;21.90;;;13.32;;
37455;SDS011;23316;50.718;7.328;2023-02-15T09:56:01;28.17;;;16.20;;
37455;SDS011;23316;50.718;7.328;2023-02-15T09:58:40;25.23;;;14.27;;
37455;SDS011;23316;50.718;7.328;2023-02-15T10:01:16;27.88;;;14.65;;
37455;SDS011;23316;50.718;7.328;2023-02-15T10:04:02;22.27;;;13.82;;
37455;SDS011;23316;50.718;7.328;2023-02-15T10:06:42;22.08;;;13.38;;
37455;SDS011;23316;50.718;7.328;2023-02-15T10:09:25;25.65;;;14.18;;
37455;SDS011;23316;50.718;7.328;2023-02-15T10:12:11;23.38;;;13.40;;
37455;SDS011;23316;50.718;7.328;2023-02-15T10:17:53;31.98;;;15.57;;
37455;SDS011;23316;50.718;7.328;2023-02-15T10:20:33;26.50;;;15.93;;
37455;SDS011;23316;50.718;7.328;2023-02-15T10:23:16;23.08;;;14.40;;
37455;SDS011;23316;50.718;7.328;2023-02-15T10:25:56;29.95;;;15.25;;
37455;SDS011;23316;50.718;7.328;2023-02-15T10:28:30;24.92;;;14.57;;
37455;SDS011;23316;50.718;7.328;2023-02-15T10:31:09;22.95;;;13.45;;
37455;SDS011;23316;50.718;7.328;2023-02-15T10:33:42;24.35;;;14.32;;
37455;SDS011;23316;50.718;7.328;2023-02-15T10:36:22;23.80;;;13.57;;
37455;SDS011;23316;50.718;7.328;2023-02-15T10:39:00;20.92;;;12.70;;
37455;SDS011;23316;50.718;7.328;2023-02-15T10:41:35;27.05;;;14.43;;
37455;SDS011;23316;50.718;7.328;2023-02-15T10:44:13;24.85;;;13.60;;
37455;SDS011;23316;50.718;7.328;2023-02-15T10:46:59;23.50;;;13.30;;
37455;SDS011;23316;50.718;7.328;2023-02-15T10:49:40;23.92;;;13.02;;
37455;SDS011;23316;50.718;7.328;2023-02-15T10:52:21;22.58;;;13.50;;
37455;SDS011;23316;50.718;7.328;2023-02-15T10:54:57;21.80;;;12.70;;
37455;SDS011;23316;50.718;7.328;2023-02-15T10:57:34;23.00;;;13.23;;
37455;SDS011;23316;50.718;7.328;2023-02-15T11:00:14;21.88;;;13.20;;
37455;SDS011;23316;50.718;7.328;2023-02-15T11:02:52;23.85;;;13.52;;
37455;SDS011;23316;50.718;7.328;2023-02-15T11:05:35;26.73;;;14.27;;
37455;SDS011;23316;50.718;7.328;2023-02-15T11:08:10;25.83;;;14.05;;
37455;SDS011;23316;50.718;7.328;2023-02-15T11:10:39;30.50;;;17.42;;
37455;SDS011;23316;50.718;7.328;2023-02-15T11:13:13;25.80;;;13.65;;
37455;SDS011;23316;50.718;7.328;2023-02-15T11:15:44;22.92;;;13.48;;
37455;SDS011;23316;50.718;7.328;2023-02-15T11:18:19;22.05;;;13.13;;
37455;SDS011;23316;50.718;7.328;2023-02-15T11:20:55;22.90;;;13.55;;
37455;SDS011;23316;50.718;7.328;2023-02-15T11:23:26;24.27;;;13.25;;
37455;SDS011;23316;50.718;7.328;2023-02-15T11:25:55;23.50;;;13.65;;
37455;SDS011;23316;50.718;7.328;2023-02-15T11:28:25;20.20;;;11.95;;
37455;SDS011;23316;50.718;7.328;2023-02-15T11:30:58;24.00;;;14.23;;
37455;SDS011;23316;50.718;7.328;2023-02-15T11:33:31;22.98;;;13.10;;
37455;SDS011;23316;50.718;7.328;2023-02-15T11:36:05;21.05;;;12.75;;
37455;SDS011;23316;50.718;7.328;2023-02-15T11:38:38;21.55;;;12.88;;
37455;SDS011;23316;50.718;7.328;2023-02-15T11:41:09;21.83;;;13.35;;
37455;SDS011;23316;50.718;7.328;2023-02-15T11:43:42;26.98;;;13.30;;
37455;SDS011;23316;50.718;7.328;2023-02-15T11:46:13;25.98;;;13.60;;
37455;SDS011;23316;50.718;7.328;2023-02-15T11:48:42;24.98;;;13.40;;
37455;SDS011;23316;50.718;7.328;2023-02-15T11:51:11;22.27;;;13.13;;
37455;SDS011;23316;50.718;7.328;2023-02-15T11:53:42;24.90;;;13.48;;
37455;SDS011;23316;50.718;7.328;2023-02-15T11:56:13;22.52;;;13.23;;
37455;SDS011;23316;50.718;7.328;2023-02-15T11:58:43;22.08;;;12.63;;
37455;SDS011;23316;50.718;7.328;2023-02-15T12:01:13;26.65;;;12.98;;
37455;SDS011;23316;50.718;7.328;2023-02-15T12:03:46;21.95;;;13.18;;
37455;SDS011;23316;50.718;7.328;2023-02-15T12:06:16;19.30;;;12.43;;
37455;SDS011;23316;50.718;7.328;2023-02-15T12:08:51;21.00;;;12.48;;
37455;SDS011;23316;50.718;7.328;2023-02-15T12:11:25;26.33;;;13.75;;
37455;SDS011;23316;50.718;7.328;2023-02-15T12:13:57;22.40;;;12.55;;
37455;SDS011;23316;50.718;7.328;2023-02-15T12:16:25;24.23;;;12.88;;
37455;SDS011;23316;50.718;7.328;2023-02-15T12:18:57;22.05;;;12.95;;
37455;SDS011;23316;50.718;7.328;2023-02-15T12:21:27;20.45;;;13.10;;
37455;SDS011;23316;50.718;7.328;2023-02-15T12:23:57;22.80;;;13.35;;
37455;SDS011;23316;50.718;7.328;2023-02-15T12:26:29;23.55;;;12.80;;
37455;SDS011;23316;50.718;7.328;2023-02-15T12:28:59;23.23;;;12.15;;
37455;SDS011;23316;50.718;7.328;2023-02-15T12:31:30;22.27;;;12.60;;
37455;SDS011;23316;50.718;7.328;2023-02-15T12:34:02;21.48;;;12.20;;
37455;SDS011;23316;50.718;7.328;2023-02-15T12:36:40;20.38;;;12.38;;
37455;SDS011;23316;50.718;7.328;2023-02-15T12:39:17;22.23;;;13.27;;
37455;SDS011;23316;50.718;7.328;2023-02-15T12:41:56;21.80;;;13.43;;
37455;SDS011;23316;50.718;7.328;2023-02-15T12:44:26;22.88;;;13.65;;
37455;SDS011;23316;50.718;7.328;2023-02-15T12:46:55;23.08;;;13.80;;
37455;SDS011;23316;50.718;7.328;2023-02-15T12:49:26;23.98;;;14.55;;
37455;SDS011;23316;50.718;7.328;2023-02-15T12:51:55;24.80;;;15.00;;
37455;SDS011;23316;50.718;7.328;2023-02-15T12:54:34;25.25;;;14.60;;
37455;SDS011;23316;50.718;7.328;2023-02-15T12:57:14;26.08;;;14.70;;
37455;SDS011;23316;50.718;7.328;2023-02-15T12:59:48;22.65;;;13.65;;
37455;SDS011;23316;50.718;7.328;2023-02-15T13:02:19;27.77;;;14.90;;
37455;SDS011;23316;50.718;7.328;2023-02-15T13:04:51;26.52;;;14.40;;
37455;SDS011;23316;50.718;7.328;2023-02-15T13:07:19;25.23;;;15.40;;
37455;SDS011;23316;50.718;7.328;2023-02-15T13:09:47;30.08;;;16.00;;
37455;SDS011;23316;50.718;7.328;2023-02-15T13:12:17;27.25;;;15.07;;
37455;SDS011;23316;50.718;7.328;2023-02-15T13:14:47;27.40;;;15.63;;
37455;SDS011;23316;50.718;7.328;2023-02-15T13:17:17;26.05;;;14.88;;
37455;SDS011;23316;50.718;7.328;2023-02-15T13:19:51;25.05;;;14.50;;
37455;SDS011;23316;50.718;7.328;2023-02-15T13:22:21;25.90;;;15.07;;
37455;SDS011;23316;50.718;7.328;2023-02-15T13:24:53;26.58;;;16.42;;
37455;SDS011;23316;50.718;7.328;2023-02-15T13:27:24;29.08;;;15.70;;
37455;SDS011;23316;50.718;7.328;2023-02-15T13:29:56;27.98;;;15.70;;
37455;SDS011;23316;50.718;7.328;2023-02-15T13:32:28;27.23;;;15.90;;
37455;SDS011;23316;50.718;7.328;2023-02-15T13:34:59;29.02;;;16.98;;
37455;SDS011;23316;50.718;7.328;2023-02-15T13:37:42;25.52;;;15.77;;
37455;SDS011;23316;50.718;7.328;2023-02-15T13:40:22;28.42;;;16.30;;
37455;SDS011;23316;50.718;7.328;2023-02-15T13:45:28;24.45;;;15.10;;
37455;SDS011;23316;50.718;7.328;2023-02-15T13:48:03;29.00;;;16.02;;
37455;SDS011;23316;50.718;7.328;2023-02-15T13:50:52;27.70;;;15.68;;
37455;SDS011;23316;50.718;7.328;2023-02-15T13:53:28;26.92;;;16.00;;
37455;SDS011;23316;50.718;7.328;2023-02-15T13:56:05;25.92;;;15.90;;
37455;SDS011;23316;50.718;7.328;2023-02-15T13:59:00;27.75;;;16.92;;
37455;SDS011;23316;50.718;7.328;2023-02-15T14:01:39;27.80;;;17.05;;
37455;SDS011;23316;50.718;7.328;2023-02-15T14:04:16;28.58;;;16.30;;
37455;SDS011;23316;50.718;7.328;2023-02-15T14:07:10;28.52;;;17.05;;
37455;SDS011;23316;50.718;7.328;2023-02-15T14:09:47;28.88;;;16.80;;
37455;SDS011;23316;50.718;7.328;2023-02-15T14:12:26;31.55;;;17.05;;
37455;SDS011;23316;50.718;7.328;2023-02-15T14:15:06;28.35;;;16.33;;
37455;SDS011;23316;50.718;7.328;2023-02-15T14:17:43;31.00;;;17.63;;
37455;SDS011;23316;50.718;7.328;2023-02-15T14:20:20;27.70;;;16.48;;
37455;SDS011;23316;50.718;7.328;2023-02-15T14:22:53;27.90;;;16.67;;
37455;SDS011;23316;50.718;7.328;2023-02-15T14:25:30;27.58;;;16.40;;
37455;SDS011;23316;50.718;7.328;2023-02-15T14:28:03;31.90;;;17.70;;
37455;SDS011;23316;50.718;7.328;2023-02-15T14:30:36;28.25;;;16.10;;
37455;SDS011;23316;50.718;7.328;2023-02-15T14:33:05;27.02;;;16.20;;
37455;SDS011;23316;50.718;7.328;2023-02-15T14:35:49;27.90;;;16.27;;
37455;SDS011;23316;50.718;7.328;2023-02-15T14:38:20;30.02;;;16.65;;
37455;SDS011;23316;50.718;7.328;2023-02-15T14:40:58;27.40;;;16.50;;
37455;SDS011;23316;50.718;7.328;2023-02-15T14:43:32;25.70;;;15.40;;
37455;SDS011;23316;50.718;7.328;2023-02-15T14:46:11;25.17;;;15.45;;
37455;SDS011;23316;50.718;7.328;2023-02-15T14:48:48;27.35;;;16.27;;
37455;SDS011;23316;50.718;7.328;2023-02-15T14:57:35;28.13;;;16.35;;
37455;SDS011;23316;50.718;7.328;2023-02-15T15:00:14;26.67;;;15.55;;
37455;SDS011;23316;50.718;7.328;2023-02-15T15:02:59;30.02;;;17.55;;
37455;SDS011;23316;50.718;7.328;2023-02-15T15:05:29;30.73;;;16.70;;
37455;SDS011;23316;50.718;7.328;2023-02-15T15:07:59;25.80;;;15.85;;